Archival Weather

Tokyo Intl

Tokyo, Japan (RJTT)

Report from: Tuesday, November 21, 2023 10:30 AM JST
Current time: Saturday, February 24, 2024 11:56 PM JST

Current weather – Weather history – Daily summaries
Weather forecast

Temperature12.0°C (53.6°F)
Dew point4.0°C (39.2°F)
Winds 3 kts (1.5 m/s, 3.5 mph) Vrb
Winds variableWinds variable from North (10°) to East-Southeast (110°)
Visibility6.2 mi. (10 km)
Clouds Few clouds 3,000 ft. (914 m)
Ceiling: Broken clouds 4,000 ft. (1,219 m)
Altimeter30.24 in.Hg (1024 mB)
Relative humidity58 %
Density altitude-599 ft. (-183 m)
Flight conditions Visual Meteorological Conditions
Raw dataRJTT 210130Z 06003KT 010V110 9999 FEW030 BKN040 12/04 Q1024 BECMG 10005KT RMK 1CU030 6SC040 A3024
An error has occurred. This application may no longer respond until reloaded. Reload 🗙